sensor_id;sensor_type;location;lat;lon;timestamp;temperature;humidity
56771;DHT22;42641;59.794;17.616;2023-07-28T00:01:30;15.50;99.90
56771;DHT22;42641;59.794;17.616;2023-07-28T00:03:56;15.50;99.90
56771;DHT22;42641;59.794;17.616;2023-07-28T00:06:24;15.40;99.90
56771;DHT22;42641;59.794;17.616;2023-07-28T00:08:50;15.40;99.90
56771;DHT22;42641;59.794;17.616;2023-07-28T00:11:16;15.40;99.90
56771;DHT22;42641;59.794;17.616;2023-07-28T00:13:43;15.40;99.90
56771;DHT22;42641;59.794;17.616;2023-07-28T00:16:10;15.40;99.90
56771;DHT22;42641;59.794;17.616;2023-07-28T00:18:36;15.50;99.90
56771;DHT22;42641;59.794;17.616;2023-07-28T00:21:05;15.50;99.90
56771;DHT22;42641;59.794;17.616;2023-07-28T00:23:31;15.50;99.90
56771;DHT22;42641;59.794;17.616;2023-07-28T00:25:58;15.50;99.90
56771;DHT22;42641;59.794;17.616;2023-07-28T00:28:24;15.50;99.90
56771;DHT22;42641;59.794;17.616;2023-07-28T00:30:50;15.50;99.90
56771;DHT22;42641;59.794;17.616;2023-07-28T00:33:17;15.50;99.90
56771;DHT22;42641;59.794;17.616;2023-07-28T00:35:43;15.50;99.90
56771;DHT22;42641;59.794;17.616;2023-07-28T00:38:10;15.50;99.90
56771;DHT22;42641;59.794;17.616;2023-07-28T00:40:37;15.50;99.90
56771;DHT22;42641;59.794;17.616;2023-07-28T00:43:03;15.50;99.90
56771;DHT22;42641;59.794;17.616;2023-07-28T00:45:31;15.50;99.90
56771;DHT22;42641;59.794;17.616;2023-07-28T00:47:59;15.40;99.90
56771;DHT22;42641;59.794;17.616;2023-07-28T00:50:26;15.50;99.90
56771;DHT22;42641;59.794;17.616;2023-07-28T00:52:55;15.50;99.90
56771;DHT22;42641;59.794;17.616;2023-07-28T00:55:22;15.50;99.90
56771;DHT22;42641;59.794;17.616;2023-07-28T00:57:50;15.50;99.90
56771;DHT22;42641;59.794;17.616;2023-07-28T01:00:16;15.50;99.90
56771;DHT22;42641;59.794;17.616;2023-07-28T01:02:43;15.40;99.90
56771;DHT22;42641;59.794;17.616;2023-07-28T01:05:10;15.40;99.90
56771;DHT22;42641;59.794;17.616;2023-07-28T01:08:21;15.40;99.90
56771;DHT22;42641;59.794;17.616;2023-07-28T01:10:38;15.40;99.90
56771;DHT22;42641;59.794;17.616;2023-07-28T01:13:05;15.40;99.90
56771;DHT22;42641;59.794;17.616;2023-07-28T01:15:32;15.50;99.90
56771;DHT22;42641;59.794;17.616;2023-07-28T01:17:58;15.50;99.90
56771;DHT22;42641;59.794;17.616;2023-07-28T01:20:29;15.50;99.90
56771;DHT22;42641;59.794;17.616;2023-07-28T01:28:24;15.60;99.90
56771;DHT22;42641;59.794;17.616;2023-07-28T01:30:51;15.60;99.90
56771;DHT22;42641;59.794;17.616;2023-07-28T01:33:18;15.60;99.90
56771;DHT22;42641;59.794;17.616;2023-07-28T01:35:45;15.60;99.90
56771;DHT22;42641;59.794;17.616;2023-07-28T01:38:11;15.60;99.90
56771;DHT22;42641;59.794;17.616;2023-07-28T01:40:39;15.60;99.90
56771;DHT22;42641;59.794;17.616;2023-07-28T01:43:05;15.70;99.90
56771;DHT22;42641;59.794;17.616;2023-07-28T01:45:32;15.70;99.90
56771;DHT22;42641;59.794;17.616;2023-07-28T01:47:58;15.70;99.90
56771;DHT22;42641;59.794;17.616;2023-07-28T01:50:24;15.60;99.90
56771;DHT22;42641;59.794;17.616;2023-07-28T01:52:51;15.60;99.90
56771;DHT22;42641;59.794;17.616;2023-07-28T01:55:17;15.70;99.90
56771;DHT22;42641;59.794;17.616;2023-07-28T01:57:54;15.60;99.90
56771;DHT22;42641;59.794;17.616;2023-07-28T02:00:21;15.60;99.90
56771;DHT22;42641;59.794;17.616;2023-07-28T02:02:48;15.50;99.90
56771;DHT22;42641;59.794;17.616;2023-07-28T02:05:15;15.60;99.90
56771;DHT22;42641;59.794;17.616;2023-07-28T02:07:42;15.60;99.90
56771;DHT22;42641;59.794;17.616;2023-07-28T02:10:09;15.70;99.90
56771;DHT22;42641;59.794;17.616;2023-07-28T02:12:37;15.70;99.90
56771;DHT22;42641;59.794;17.616;2023-07-28T02:15:05;15.70;99.90
56771;DHT22;42641;59.794;17.616;2023-07-28T02:17:32;15.70;99.90
56771;DHT22;42641;59.794;17.616;2023-07-28T02:19:58;15.70;99.90
56771;DHT22;42641;59.794;17.616;2023-07-28T02:22:25;15.70;99.90
56771;DHT22;42641;59.794;17.616;2023-07-28T02:24:51;15.70;99.90
56771;DHT22;42641;59.794;17.616;2023-07-28T02:27:17;15.60;99.90
56771;DHT22;42641;59.794;17.616;2023-07-28T02:29:44;15.60;99.90
56771;DHT22;42641;59.794;17.616;2023-07-28T02:32:11;15.60;99.90
56771;DHT22;42641;59.794;17.616;2023-07-28T02:34:37;15.60;99.90
56771;DHT22;42641;59.794;17.616;2023-07-28T02:37:04;15.60;99.90
56771;DHT22;42641;59.794;17.616;2023-07-28T02:39:31;15.60;99.90
56771;DHT22;42641;59.794;17.616;2023-07-28T02:41:57;15.60;99.90
56771;DHT22;42641;59.794;17.616;2023-07-28T02:44:23;15.60;99.90
56771;DHT22;42641;59.794;17.616;2023-07-28T02:46:50;15.60;99.90
56771;DHT22;42641;59.794;17.616;2023-07-28T02:49:16;15.60;99.90
56771;DHT22;42641;59.794;17.616;2023-07-28T02:51:43;15.60;99.90
56771;DHT22;42641;59.794;17.616;2023-07-28T02:54:10;15.60;99.90
56771;DHT22;42641;59.794;17.616;2023-07-28T02:56:36;15.60;99.90
56771;DHT22;42641;59.794;17.616;2023-07-28T02:59:07;15.70;99.90
56771;DHT22;42641;59.794;17.616;2023-07-28T03:01:34;15.70;99.90
56771;DHT22;42641;59.794;17.616;2023-07-28T03:04:02;15.70;99.90
56771;DHT22;42641;59.794;17.616;2023-07-28T03:06:33;15.70;99.90
56771;DHT22;42641;59.794;17.616;2023-07-28T03:08:59;15.70;99.90
56771;DHT22;42641;59.794;17.616;2023-07-28T03:11:39;15.60;99.90
56771;DHT22;42641;59.794;17.616;2023-07-28T03:14:06;15.70;99.90
56771;DHT22;42641;59.794;17.616;2023-07-28T03:16:32;15.70;99.90
56771;DHT22;42641;59.794;17.616;2023-07-28T03:18:59;15.70;99.90
56771;DHT22;42641;59.794;17.616;2023-07-28T03:21:25;15.70;99.90
56771;DHT22;42641;59.794;17.616;2023-07-28T03:23:52;15.80;99.90
56771;DHT22;42641;59.794;17.616;2023-07-28T03:26:18;15.80;99.90
56771;DHT22;42641;59.794;17.616;2023-07-28T03:28:45;15.80;99.90
56771;DHT22;42641;59.794;17.616;2023-07-28T03:31:12;15.80;99.90
56771;DHT22;42641;59.794;17.616;2023-07-28T03:33:38;15.90;99.90
56771;DHT22;42641;59.794;17.616;2023-07-28T03:36:05;15.90;99.90
56771;DHT22;42641;59.794;17.616;2023-07-28T03:38:33;15.90;99.90
56771;DHT22;42641;59.794;17.616;2023-07-28T03:40:59;15.80;99.90
56771;DHT22;42641;59.794;17.616;2023-07-28T03:43:26;15.90;99.90
56771;DHT22;42641;59.794;17.616;2023-07-28T03:45:52;15.80;99.90
56771;DHT22;42641;59.794;17.616;2023-07-28T03:48:19;15.80;99.90
56771;DHT22;42641;59.794;17.616;2023-07-28T03:50:46;15.80;99.90
56771;DHT22;42641;59.794;17.616;2023-07-28T03:53:13;15.70;99.90
56771;DHT22;42641;59.794;17.616;2023-07-28T03:55:39;15.70;99.90
56771;DHT22;42641;59.794;17.616;2023-07-28T03:58:06;15.80;99.90
56771;DHT22;42641;59.794;17.616;2023-07-28T04:00:33;15.80;99.90
56771;DHT22;42641;59.794;17.616;2023-07-28T04:02:59;15.80;99.90
56771;DHT22;42641;59.794;17.616;2023-07-28T04:05:26;15.70;99.90
56771;DHT22;42641;59.794;17.616;2023-07-28T04:07:52;15.70;99.90
56771;DHT22;42641;59.794;17.616;2023-07-28T04:10:19;15.70;99.90
56771;DHT22;42641;59.794;17.616;2023-07-28T04:12:46;15.70;99.90
56771;DHT22;42641;59.794;17.616;2023-07-28T04:15:12;15.70;99.90
56771;DHT22;42641;59.794;17.616;2023-07-28T04:17:39;15.60;99.90
56771;DHT22;42641;59.794;17.616;2023-07-28T04:20:06;15.60;99.90
56771;DHT22;42641;59.794;17.616;2023-07-28T04:22:32;15.60;99.90
56771;DHT22;42641;59.794;17.616;2023-07-28T04:24:59;15.50;99.90
56771;DHT22;42641;59.794;17.616;2023-07-28T04:27:25;15.50;99.90
56771;DHT22;42641;59.794;17.616;2023-07-28T04:29:57;15.50;99.90
56771;DHT22;42641;59.794;17.616;2023-07-28T04:32:25;15.60;99.90
56771;DHT22;42641;59.794;17.616;2023-07-28T04:34:53;15.70;99.90
56771;DHT22;42641;59.794;17.616;2023-07-28T04:37:39;15.80;99.90
56771;DHT22;42641;59.794;17.616;2023-07-28T04:40:06;15.90;99.90
56771;DHT22;42641;59.794;17.616;2023-07-28T04:42:36;16.00;99.90
56771;DHT22;42641;59.794;17.616;2023-07-28T04:45:04;16.10;99.90
56771;DHT22;42641;59.794;17.616;2023-07-28T04:47:32;16.20;99.90
56771;DHT22;42641;59.794;17.616;2023-07-28T04:49:58;16.20;99.90
56771;DHT22;42641;59.794;17.616;2023-07-28T04:52:25;16.30;99.90
56771;DHT22;42641;59.794;17.616;2023-07-28T04:55:01;16.40;99.90
56771;DHT22;42641;59.794;17.616;2023-07-28T04:57:27;16.50;99.90
56771;DHT22;42641;59.794;17.616;2023-07-28T04:59:53;16.50;99.90
56771;DHT22;42641;59.794;17.616;2023-07-28T05:02:20;16.50;99.90
56771;DHT22;42641;59.794;17.616;2023-07-28T05:04:46;16.50;99.90
56771;DHT22;42641;59.794;17.616;2023-07-28T05:07:13;16.60;99.90
56771;DHT22;42641;59.794;17.616;2023-07-28T05:09:42;16.70;99.90
56771;DHT22;42641;59.794;17.616;2023-07-28T05:12:09;16.70;99.90
56771;DHT22;42641;59.794;17.616;2023-07-28T05:14:42;16.80;99.90
56771;DHT22;42641;59.794;17.616;2023-07-28T05:17:09;16.80;99.90
56771;DHT22;42641;59.794;17.616;2023-07-28T05:19:51;16.80;99.90
56771;DHT22;42641;59.794;17.616;2023-07-28T05:22:53;16.80;99.90
56771;DHT22;42641;59.794;17.616;2023-07-28T05:25:27;16.80;99.90
56771;DHT22;42641;59.794;17.616;2023-07-28T05:27:53;16.80;99.90
56771;DHT22;42641;59.794;17.616;2023-07-28T05:30:20;16.80;99.90
56771;DHT22;42641;59.794;17.616;2023-07-28T05:32:47;16.70;99.90
56771;DHT22;42641;59.794;17.616;2023-07-28T05:35:24;16.70;99.90
56771;DHT22;42641;59.794;17.616;2023-07-28T05:37:50;16.60;99.90
56771;DHT22;42641;59.794;17.616;2023-07-28T05:40:17;16.60;99.90
56771;DHT22;42641;59.794;17.616;2023-07-28T05:42:43;16.70;99.90
56771;DHT22;42641;59.794;17.616;2023-07-28T05:45:10;16.70;99.90
56771;DHT22;42641;59.794;17.616;2023-07-28T05:47:37;16.60;99.90
56771;DHT22;42641;59.794;17.616;2023-07-28T05:50:04;16.70;99.90
56771;DHT22;42641;59.794;17.616;2023-07-28T05:52:31;16.80;99.90
56771;DHT22;42641;59.794;17.616;2023-07-28T05:54:58;16.80;99.90
56771;DHT22;42641;59.794;17.616;2023-07-28T05:57:25;16.70;99.90
56771;DHT22;42641;59.794;17.616;2023-07-28T05:59:51;16.70;99.90
56771;DHT22;42641;59.794;17.616;2023-07-28T06:02:17;16.80;99.90
56771;DHT22;42641;59.794;17.616;2023-07-28T06:04:54;16.90;99.90
56771;DHT22;42641;59.794;17.616;2023-07-28T06:07:22;16.90;99.90
56771;DHT22;42641;59.794;17.616;2023-07-28T06:09:48;16.90;99.90
56771;DHT22;42641;59.794;17.616;2023-07-28T06:12:15;17.00;99.90
56771;DHT22;42641;59.794;17.616;2023-07-28T06:14:42;17.10;99.90
56771;DHT22;42641;59.794;17.616;2023-07-28T06:17:10;17.30;99.90
56771;DHT22;42641;59.794;17.616;2023-07-28T06:19:37;17.40;99.90
56771;DHT22;42641;59.794;17.616;2023-07-28T06:22:04;17.60;99.90
56771;DHT22;42641;59.794;17.616;2023-07-28T06:24:33;17.60;99.90
56771;DHT22;42641;59.794;17.616;2023-07-28T06:27:01;17.70;99.90
56771;DHT22;42641;59.794;17.616;2023-07-28T06:29:34;17.60;99.90
56771;DHT22;42641;59.794;17.616;2023-07-28T06:32:00;17.70;99.90
56771;DHT22;42641;59.794;17.616;2023-07-28T06:34:27;17.80;99.90
56771;DHT22;42641;59.794;17.616;2023-07-28T06:36:54;17.90;99.90
56771;DHT22;42641;59.794;17.616;2023-07-28T06:39:21;17.80;99.90
56771;DHT22;42641;59.794;17.616;2023-07-28T06:41:47;17.90;99.90
56771;DHT22;42641;59.794;17.616;2023-07-28T06:44:15;18.00;99.90
56771;DHT22;42641;59.794;17.616;2023-07-28T06:46:42;18.10;99.90
56771;DHT22;42641;59.794;17.616;2023-07-28T06:49:09;18.30;99.90
56771;DHT22;42641;59.794;17.616;2023-07-28T06:51:35;18.40;99.90
56771;DHT22;42641;59.794;17.616;2023-07-28T06:54:03;18.50;99.90
56771;DHT22;42641;59.794;17.616;2023-07-28T06:56:29;18.60;99.90
56771;DHT22;42641;59.794;17.616;2023-07-28T06:58:56;18.60;99.90
56771;DHT22;42641;59.794;17.616;2023-07-28T07:01:23;18.70;99.90
56771;DHT22;42641;59.794;17.616;2023-07-28T07:03:49;18.90;99.90
56771;DHT22;42641;59.794;17.616;2023-07-28T07:06:16;19.10;99.90
56771;DHT22;42641;59.794;17.616;2023-07-28T07:08:43;19.20;99.90
56771;DHT22;42641;59.794;17.616;2023-07-28T07:11:12;19.30;99.90
56771;DHT22;42641;59.794;17.616;2023-07-28T07:13:38;19.30;99.90
56771;DHT22;42641;59.794;17.616;2023-07-28T07:16:16;19.40;99.90
56771;DHT22;42641;59.794;17.616;2023-07-28T07:18:43;19.60;99.90
56771;DHT22;42641;59.794;17.616;2023-07-28T07:21:10;19.70;99.90
56771;DHT22;42641;59.794;17.616;2023-07-28T07:23:37;19.80;99.90
56771;DHT22;42641;59.794;17.616;2023-07-28T07:26:03;20.00;99.90
56771;DHT22;42641;59.794;17.616;2023-07-28T07:28:30;20.10;99.90
56771;DHT22;42641;59.794;17.616;2023-07-28T07:30:57;20.20;99.90
56771;DHT22;42641;59.794;17.616;2023-07-28T07:33:23;20.30;99.90
56771;DHT22;42641;59.794;17.616;2023-07-28T07:35:50;20.30;99.90
56771;DHT22;42641;59.794;17.616;2023-07-28T07:38:17;20.20;99.90
56771;DHT22;42641;59.794;17.616;2023-07-28T07:40:46;20.10;99.90
56771;DHT22;42641;59.794;17.616;2023-07-28T07:43:13;20.10;99.90
56771;DHT22;42641;59.794;17.616;2023-07-28T07:45:46;20.10;99.90
56771;DHT22;42641;59.794;17.616;2023-07-28T07:48:18;20.10;99.90
56771;DHT22;42641;59.794;17.616;2023-07-28T07:50:44;20.20;99.90
56771;DHT22;42641;59.794;17.616;2023-07-28T07:53:10;20.10;99.90
56771;DHT22;42641;59.794;17.616;2023-07-28T07:55:37;20.00;99.90
56771;DHT22;42641;59.794;17.616;2023-07-28T07:58:03;20.00;99.90
56771;DHT22;42641;59.794;17.616;2023-07-28T08:00:30;20.00;99.90
56771;DHT22;42641;59.794;17.616;2023-07-28T08:02:56;20.00;99.90
56771;DHT22;42641;59.794;17.616;2023-07-28T08:05:23;20.10;99.90
56771;DHT22;42641;59.794;17.616;2023-07-28T08:07:49;20.10;99.90
56771;DHT22;42641;59.794;17.616;2023-07-28T08:10:17;20.10;99.90
56771;DHT22;42641;59.794;17.616;2023-07-28T08:12:43;20.20;99.90
56771;DHT22;42641;59.794;17.616;2023-07-28T08:15:11;20.30;99.90
56771;DHT22;42641;59.794;17.616;2023-07-28T08:17:37;20.40;99.90
56771;DHT22;42641;59.794;17.616;2023-07-28T08:20:05;20.40;99.90
56771;DHT22;42641;59.794;17.616;2023-07-28T08:22:32;20.40;99.90
56771;DHT22;42641;59.794;17.616;2023-07-28T08:24:59;20.40;99.90
56771;DHT22;42641;59.794;17.616;2023-07-28T08:27:26;20.30;99.90
56771;DHT22;42641;59.794;17.616;2023-07-28T08:29:52;20.40;99.90
56771;DHT22;42641;59.794;17.616;2023-07-28T08:32:20;20.50;99.90
56771;DHT22;42641;59.794;17.616;2023-07-28T08:34:47;20.50;99.90
56771;DHT22;42641;59.794;17.616;2023-07-28T08:37:14;20.50;99.90
56771;DHT22;42641;59.794;17.616;2023-07-28T08:39:40;20.60;99.90
56771;DHT22;42641;59.794;17.616;2023-07-28T08:42:07;20.70;99.90
56771;DHT22;42641;59.794;17.616;2023-07-28T08:44:34;20.60;99.90
56771;DHT22;42641;59.794;17.616;2023-07-28T08:47:04;20.50;99.90
56771;DHT22;42641;59.794;17.616;2023-07-28T08:49:31;20.30;99.90
56771;DHT22;42641;59.794;17.616;2023-07-28T08:52:00;20.20;99.90
56771;DHT22;42641;59.794;17.616;2023-07-28T08:54:27;20.10;99.90
56771;DHT22;42641;59.794;17.616;2023-07-28T08:56:53;20.00;99.90
56771;DHT22;42641;59.794;17.616;2023-07-28T08:59:24;20.10;99.90
56771;DHT22;42641;59.794;17.616;2023-07-28T09:01:52;20.30;99.90
56771;DHT22;42641;59.794;17.616;2023-07-28T09:04:21;20.30;99.90
56771;DHT22;42641;59.794;17.616;2023-07-28T09:06:48;20.40;99.90
56771;DHT22;42641;59.794;17.616;2023-07-28T09:09:16;20.50;99.90
56771;DHT22;42641;59.794;17.616;2023-07-28T09:11:47;20.50;99.90
56771;DHT22;42641;59.794;17.616;2023-07-28T09:14:15;20.50;99.90
56771;DHT22;42641;59.794;17.616;2023-07-28T09:16:43;20.40;99.90
56771;DHT22;42641;59.794;17.616;2023-07-28T09:19:10;20.30;99.90
56771;DHT22;42641;59.794;17.616;2023-07-28T09:21:38;20.20;99.90
56771;DHT22;42641;59.794;17.616;2023-07-28T09:24:06;20.10;99.90
56771;DHT22;42641;59.794;17.616;2023-07-28T09:29:15;19.80;99.90
56771;DHT22;42641;59.794;17.616;2023-07-28T09:31:43;19.60;99.90
56771;DHT22;42641;59.794;17.616;2023-07-28T09:34:10;19.50;99.90
56771;DHT22;42641;59.794;17.616;2023-07-28T09:36:37;19.50;99.90
56771;DHT22;42641;59.794;17.616;2023-07-28T09:39:05;19.40;99.90
56771;DHT22;42641;59.794;17.616;2023-07-28T09:41:35;19.10;99.90
56771;DHT22;42641;59.794;17.616;2023-07-28T09:44:04;18.20;99.90
56771;DHT22;42641;59.794;17.616;2023-07-28T09:46:35;17.40;99.90
56771;DHT22;42641;59.794;17.616;2023-07-28T09:49:05;16.90;99.90
56771;DHT22;42641;59.794;17.616;2023-07-28T09:51:34;16.40;99.90
56771;DHT22;42641;59.794;17.616;2023-07-28T09:54:07;16.10;99.90
56771;DHT22;42641;59.794;17.616;2023-07-28T09:56:38;15.90;99.90
56771;DHT22;42641;59.794;17.616;2023-07-28T09:59:11;15.70;99.90
56771;DHT22;42641;59.794;17.616;2023-07-28T10:01:39;15.60;99.90
56771;DHT22;42641;59.794;17.616;2023-07-28T10:04:06;15.70;99.90
56771;DHT22;42641;59.794;17.616;2023-07-28T10:06:33;15.80;99.90
56771;DHT22;42641;59.794;17.616;2023-07-28T10:09:00;15.90;99.90
56771;DHT22;42641;59.794;17.616;2023-07-28T10:11:27;15.90;99.90
56771;DHT22;42641;59.794;17.616;2023-07-28T10:13:54;16.00;99.90
56771;DHT22;42641;59.794;17.616;2023-07-28T10:16:30;16.10;99.90
56771;DHT22;42641;59.794;17.616;2023-07-28T10:18:59;16.20;99.90
56771;DHT22;42641;59.794;17.616;2023-07-28T10:21:28;16.40;99.90
56771;DHT22;42641;59.794;17.616;2023-07-28T10:23:57;16.50;99.90
56771;DHT22;42641;59.794;17.616;2023-07-28T10:26:31;16.60;99.90
56771;DHT22;42641;59.794;17.616;2023-07-28T10:29:09;16.70;99.90
56771;DHT22;42641;59.794;17.616;2023-07-28T10:31:36;16.80;99.90
56771;DHT22;42641;59.794;17.616;2023-07-28T10:34:02;16.90;99.90
56771;DHT22;42641;59.794;17.616;2023-07-28T10:39:16;17.10;99.90
56771;DHT22;42641;59.794;17.616;2023-07-28T10:42:12;17.20;99.90
56771;DHT22;42641;59.794;17.616;2023-07-28T10:44:39;17.50;99.90
56771;DHT22;42641;59.794;17.616;2023-07-28T10:47:10;17.70;99.90
56771;DHT22;42641;59.794;17.616;2023-07-28T10:49:37;17.90;99.90
56771;DHT22;42641;59.794;17.616;2023-07-28T10:52:04;18.00;99.90
56771;DHT22;42641;59.794;17.616;2023-07-28T10:54:34;18.10;99.90
56771;DHT22;42641;59.794;17.616;2023-07-28T10:57:04;18.20;99.90
56771;DHT22;42641;59.794;17.616;2023-07-28T10:59:30;18.40;99.90
56771;DHT22;42641;59.794;17.616;2023-07-28T11:01:57;18.40;99.90
56771;DHT22;42641;59.794;17.616;2023-07-28T11:04:26;18.50;99.90
56771;DHT22;42641;59.794;17.616;2023-07-28T11:06:53;18.40;99.90
56771;DHT22;42641;59.794;17.616;2023-07-28T11:09:22;18.40;99.90
56771;DHT22;42641;59.794;17.616;2023-07-28T11:11:50;18.50;99.90
56771;DHT22;42641;59.794;17.616;2023-07-28T11:14:17;18.40;99.90
56771;DHT22;42641;59.794;17.616;2023-07-28T11:16:44;18.40;99.90
56771;DHT22;42641;59.794;17.616;2023-07-28T11:19:13;18.40;99.90
56771;DHT22;42641;59.794;17.616;2023-07-28T11:21:41;18.50;99.90
56771;DHT22;42641;59.794;17.616;2023-07-28T11:24:09;18.50;99.90
56771;DHT22;42641;59.794;17.616;2023-07-28T11:26:37;18.50;99.90
56771;DHT22;42641;59.794;17.616;2023-07-28T11:29:07;18.60;99.90
56771;DHT22;42641;59.794;17.616;2023-07-28T11:31:34;18.60;99.90
56771;DHT22;42641;59.794;17.616;2023-07-28T11:34:01;18.60;99.90
56771;DHT22;42641;59.794;17.616;2023-07-28T11:36:29;18.70;99.90
56771;DHT22;42641;59.794;17.616;2023-07-28T11:38:58;18.80;99.90
56771;DHT22;42641;59.794;17.616;2023-07-28T11:41:25;18.90;99.90
56771;DHT22;42641;59.794;17.616;2023-07-28T11:43:52;19.10;99.90
56771;DHT22;42641;59.794;17.616;2023-07-28T11:46:37;19.00;99.90
56771;DHT22;42641;59.794;17.616;2023-07-28T11:49:14;19.00;99.90
56771;DHT22;42641;59.794;17.616;2023-07-28T11:51:47;19.00;99.90
56771;DHT22;42641;59.794;17.616;2023-07-28T11:54:16;19.10;99.90
56771;DHT22;42641;59.794;17.616;2023-07-28T11:56:45;19.20;99.90
56771;DHT22;42641;59.794;17.616;2023-07-28T11:59:12;19.30;99.90
56771;DHT22;42641;59.794;17.616;2023-07-28T12:04:23;19.30;99.90
56771;DHT22;42641;59.794;17.616;2023-07-28T12:07:11;19.30;99.90
56771;DHT22;42641;59.794;17.616;2023-07-28T12:12:23;19.40;99.90
56771;DHT22;42641;59.794;17.616;2023-07-28T12:14:50;19.60;99.90
56771;DHT22;42641;59.794;17.616;2023-07-28T12:17:22;19.90;99.90
56771;DHT22;42641;59.794;17.616;2023-07-28T12:22:22;20.90;99.90
56771;DHT22;42641;59.794;17.616;2023-07-28T12:24:48;21.20;99.90
56771;DHT22;42641;59.794;17.616;2023-07-28T12:27:15;21.70;99.90
56771;DHT22;42641;59.794;17.616;2023-07-28T12:29:42;22.00;99.90
56771;DHT22;42641;59.794;17.616;2023-07-28T12:32:08;22.40;99.90
56771;DHT22;42641;59.794;17.616;2023-07-28T12:34:35;22.70;99.90
56771;DHT22;42641;59.794;17.616;2023-07-28T12:37:01;23.30;99.90
56771;DHT22;42641;59.794;17.616;2023-07-28T12:39:28;23.90;99.90
56771;DHT22;42641;59.794;17.616;2023-07-28T12:41:55;24.40;99.90
56771;DHT22;42641;59.794;17.616;2023-07-28T12:44:22;24.70;99.90
56771;DHT22;42641;59.794;17.616;2023-07-28T12:46:48;25.20;99.90
56771;DHT22;42641;59.794;17.616;2023-07-28T12:49:15;25.80;99.90
56771;DHT22;42641;59.794;17.616;2023-07-28T12:51:41;26.40;99.90
56771;DHT22;42641;59.794;17.616;2023-07-28T12:54:08;27.00;99.90
56771;DHT22;42641;59.794;17.616;2023-07-28T12:56:34;27.70;99.90
56771;DHT22;42641;59.794;17.616;2023-07-28T12:59:00;28.00;99.90
56771;DHT22;42641;59.794;17.616;2023-07-28T13:01:27;28.10;99.90
56771;DHT22;42641;59.794;17.616;2023-07-28T13:03:53;27.60;99.90
56771;DHT22;42641;59.794;17.616;2023-07-28T13:06:20;27.60;99.90
56771;DHT22;42641;59.794;17.616;2023-07-28T13:08:47;27.60;99.90
56771;DHT22;42641;59.794;17.616;2023-07-28T13:11:13;27.90;99.90
56771;DHT22;42641;59.794;17.616;2023-07-28T13:13:43;28.20;99.90
56771;DHT22;42641;59.794;17.616;2023-07-28T13:16:09;29.20;99.90
56771;DHT22;42641;59.794;17.616;2023-07-28T13:18:36;29.70;99.90
56771;DHT22;42641;59.794;17.616;2023-07-28T13:21:02;28.70;99.90
56771;DHT22;42641;59.794;17.616;2023-07-28T13:23:29;27.90;99.90
56771;DHT22;42641;59.794;17.616;2023-07-28T13:25:55;26.80;99.90
56771;DHT22;42641;59.794;17.616;2023-07-28T13:28:22;25.00;99.90
56771;DHT22;42641;59.794;17.616;2023-07-28T13:30:50;23.60;99.90
56771;DHT22;42641;59.794;17.616;2023-07-28T13:33:16;22.70;99.90
56771;DHT22;42641;59.794;17.616;2023-07-28T13:35:43;22.00;99.90
56771;DHT22;42641;59.794;17.616;2023-07-28T13:38:09;21.60;99.90
56771;DHT22;42641;59.794;17.616;2023-07-28T13:40:36;21.30;99.90
56771;DHT22;42641;59.794;17.616;2023-07-28T13:43:02;21.00;99.90
56771;DHT22;42641;59.794;17.616;2023-07-28T13:45:29;20.60;99.90
56771;DHT22;42641;59.794;17.616;2023-07-28T13:47:56;20.50;99.90
56771;DHT22;42641;59.794;17.616;2023-07-28T13:50:22;20.40;99.90
56771;DHT22;42641;59.794;17.616;2023-07-28T13:52:49;20.40;99.90
56771;DHT22;42641;59.794;17.616;2023-07-28T13:55:15;20.40;99.90
56771;DHT22;42641;59.794;17.616;2023-07-28T13:57:42;20.30;99.90
56771;DHT22;42641;59.794;17.616;2023-07-28T14:00:09;20.20;99.90
56771;DHT22;42641;59.794;17.616;2023-07-28T14:02:36;20.00;99.90
56771;DHT22;42641;59.794;17.616;2023-07-28T14:05:03;19.90;99.90
56771;DHT22;42641;59.794;17.616;2023-07-28T14:07:30;19.60;99.90
56771;DHT22;42641;59.794;17.616;2023-07-28T14:09:57;19.50;99.90
56771;DHT22;42641;59.794;17.616;2023-07-28T14:12:23;19.40;99.90
56771;DHT22;42641;59.794;17.616;2023-07-28T14:14:50;19.50;99.90
56771;DHT22;42641;59.794;17.616;2023-07-28T14:17:17;19.40;99.90
56771;DHT22;42641;59.794;17.616;2023-07-28T14:19:43;19.30;99.90
56771;DHT22;42641;59.794;17.616;2023-07-28T14:22:10;19.30;99.90
56771;DHT22;42641;59.794;17.616;2023-07-28T14:24:36;19.30;99.90
56771;DHT22;42641;59.794;17.616;2023-07-28T14:27:03;19.20;99.90
56771;DHT22;42641;59.794;17.616;2023-07-28T14:29:30;19.00;99.90
56771;DHT22;42641;59.794;17.616;2023-07-28T14:31:56;18.90;99.90
56771;DHT22;42641;59.794;17.616;2023-07-28T14:34:23;18.80;99.90
56771;DHT22;42641;59.794;17.616;2023-07-28T14:36:49;18.60;99.90
56771;DHT22;42641;59.794;17.616;2023-07-28T14:39:16;18.60;99.90
56771;DHT22;42641;59.794;17.616;2023-07-28T14:41:43;18.50;99.90
56771;DHT22;42641;59.794;17.616;2023-07-28T14:44:10;18.40;99.90
56771;DHT22;42641;59.794;17.616;2023-07-28T14:46:36;18.40;99.90
56771;DHT22;42641;59.794;17.616;2023-07-28T14:49:02;18.30;99.90
56771;DHT22;42641;59.794;17.616;2023-07-28T14:51:29;18.20;99.90
56771;DHT22;42641;59.794;17.616;2023-07-28T14:53:55;18.00;99.90
56771;DHT22;42641;59.794;17.616;2023-07-28T14:56:22;18.00;99.90
56771;DHT22;42641;59.794;17.616;2023-07-28T14:58:51;17.80;99.90
56771;DHT22;42641;59.794;17.616;2023-07-28T15:01:21;17.70;99.90
56771;DHT22;42641;59.794;17.616;2023-07-28T15:03:47;17.70;99.90
56771;DHT22;42641;59.794;17.616;2023-07-28T15:06:14;17.70;99.90
56771;DHT22;42641;59.794;17.616;2023-07-28T15:08:40;17.70;99.90
56771;DHT22;42641;59.794;17.616;2023-07-28T15:11:08;17.50;99.90
56771;DHT22;42641;59.794;17.616;2023-07-28T15:13:34;17.50;99.90
56771;DHT22;42641;59.794;17.616;2023-07-28T15:16:01;17.40;99.90
56771;DHT22;42641;59.794;17.616;2023-07-28T15:18:27;17.40;99.90
56771;DHT22;42641;59.794;17.616;2023-07-28T15:20:53;17.30;99.90
56771;DHT22;42641;59.794;17.616;2023-07-28T15:23:25;17.30;99.90
56771;DHT22;42641;59.794;17.616;2023-07-28T15:25:52;17.30;99.90
56771;DHT22;42641;59.794;17.616;2023-07-28T15:28:19;17.20;99.90
56771;DHT22;42641;59.794;17.616;2023-07-28T15:30:45;17.10;99.90
56771;DHT22;42641;59.794;17.616;2023-07-28T15:33:17;16.90;99.90
56771;DHT22;42641;59.794;17.616;2023-07-28T15:35:45;16.90;99.90
56771;DHT22;42641;59.794;17.616;2023-07-28T15:38:12;16.80;99.90